EZY24F LBSF-LBSF

Flight info

Callsign EZY24F
Flight time 0h 41m
Altitude 2000
Route CIRCUITS
Aircraft A320/M-SDE3FGHIRWY/LB1

Departure

Time 2026-05-06 09:27
Airport Sofia Airport (LBSF)

Arrival

Time 2026-05-06 10:09
Airport Sofia Airport (LBSF)
Time Latitude Longitude Altitude Speed Heading
2026-05-06 09:13 42.69350 23.40340 1747 ft 0 kts 89°
2026-05-06 09:23 42.69349 23.40396 1744 ft 12 kts 88°
2026-05-06 09:23 42.69439 23.40465 1747 ft 17 kts 16°
2026-05-06 09:23 42.69534 23.40546 1742 ft 14 kts 102°
2026-05-06 09:24 42.69518 23.40722 1747 ft 24 kts 93°
2026-05-06 09:24 42.69504 23.40961 1747 ft 28 kts 95°
2026-05-06 09:24 42.69490 23.41189 1748 ft 24 kts 94°
2026-05-06 09:24 42.69475 23.41452 1748 ft 29 kts 94°
2026-05-06 09:25 42.69458 23.41733 1749 ft 28 kts 95°
2026-05-06 09:25 42.69442 23.42009 1749 ft 30 kts 95°
2026-05-06 09:25 42.69425 23.42300 1750 ft 32 kts 95°
2026-05-06 09:25 42.69407 23.42603 1746 ft 32 kts 95°
2026-05-06 09:26 42.69472 23.42760 1746 ft 15 kts 339°
2026-05-06 09:26 42.69527 23.42662 1749 ft 14 kts 305°
2026-05-06 09:26 42.69578 23.42530 1748 ft 18 kts 291°
2026-05-06 09:26 42.69615 23.42262 1749 ft 58 kts 274°
2026-05-06 09:27 42.69664 23.41372 1754 ft 124 kts 275°
2026-05-06 09:27 42.69739 23.40000 2010 ft 171 kts 273°
2026-05-06 09:27 42.69816 23.38213 2568 ft 205 kts 275°
2026-05-06 09:27 42.69947 23.36054 2946 ft 257 kts 277°
2026-05-06 09:28 42.70118 23.33482 3001 ft 273 kts 275°
2026-05-06 09:28 42.70323 23.31022 3004 ft 252 kts 284°
2026-05-06 09:28 42.71113 23.29038 3005 ft 232 kts 316°
2026-05-06 09:28 42.72449 23.28040 3010 ft 214 kts 350°
2026-05-06 09:29 42.73856 23.28261 3007 ft 200 kts 27°
2026-05-06 09:29 42.74814 23.29540 3006 ft 194 kts 66°
2026-05-06 09:29 42.75115 23.31311 3035 ft 192 kts 85°
2026-05-06 09:29 42.75154 23.33124 3044 ft 192 kts 90°
2026-05-06 09:30 42.75148 23.34940 3015 ft 192 kts 91°
2026-05-06 09:30 42.75139 23.36757 3009 ft 192 kts 91°
2026-05-06 09:30 42.75119 23.38572 3008 ft 192 kts 91°
2026-05-06 09:30 42.75084 23.40381 3007 ft 191 kts 92°
2026-05-06 09:31 42.75044 23.42192 3009 ft 192 kts 92°
2026-05-06 09:31 42.75005 23.43979 2998 ft 191 kts 92°
2026-05-06 09:31 42.74966 23.45768 2987 ft 188 kts 92°
2026-05-06 09:31 42.74926 23.47548 2979 ft 188 kts 92°
2026-05-06 09:32 42.74885 23.49352 2978 ft 189 kts 92°
2026-05-06 09:32 42.74844 23.51116 2977 ft 189 kts 92°
2026-05-06 09:32 42.74806 23.52906 2974 ft 190 kts 92°
2026-05-06 09:32 42.74770 23.54704 2972 ft 190 kts 92°
2026-05-06 09:33 42.74732 23.56503 2971 ft 190 kts 94°
2026-05-06 09:33 42.74538 23.58254 2980 ft 184 kts 102°
2026-05-06 09:33 42.73948 23.59718 2975 ft 171 kts 142°
2026-05-06 09:33 42.72901 23.60193 2989 ft 157 kts 180°
2026-05-06 09:34 42.71826 23.59980 2994 ft 155 kts 198°
2026-05-06 09:34 42.70841 23.59404 2996 ft 154 kts 214°
2026-05-06 09:34 42.70265 23.58237 2984 ft 152 kts 264°
2026-05-06 09:34 42.70543 23.56912 2992 ft 150 kts 313°
2026-05-06 09:35 42.71470 23.56353 2995 ft 150 kts
2026-05-06 09:35 42.72379 23.56962 2995 ft 151 kts 53°
2026-05-06 09:35 42.72619 23.58302 2995 ft 151 kts 104°
2026-05-06 09:35 42.72017 23.59409 2994 ft 151 kts 153°
2026-05-06 09:36 42.71004 23.59735 3010 ft 151 kts 176°
2026-05-06 09:36 42.69947 23.59676 3001 ft 153 kts 195°
2026-05-06 09:36 42.68976 23.59113 2999 ft 153 kts 214°
2026-05-06 09:36 42.68225 23.58117 2975 ft 152 kts 246°
2026-05-06 09:37 42.68061 23.56740 3014 ft 149 kts 280°
2026-05-06 09:37 42.68339 23.55378 3081 ft 151 kts 294°
2026-05-06 09:37 42.68727 23.54044 3065 ft 152 kts 292°
2026-05-06 09:37 42.69029 23.52668 3008 ft 152 kts 283°
2026-05-06 09:38 42.69107 23.51235 2935 ft 152 kts 274°
2026-05-06 09:38 42.69140 23.49795 2871 ft 152 kts 274°
2026-05-06 09:38 42.69228 23.48364 2664 ft 151 kts 277°
2026-05-06 09:38 42.69339 23.46963 2383 ft 147 kts 276°
2026-05-06 09:39 42.69419 23.45581 2127 ft 146 kts 274°
2026-05-06 09:39 42.69501 23.44208 1873 ft 145 kts 275°
2026-05-06 09:39 42.69569 23.42895 1754 ft 132 kts 274°
2026-05-06 09:39 42.69646 23.41722 1758 ft 131 kts 275°
2026-05-06 09:40 42.69723 23.40233 1968 ft 188 kts 275°
2026-05-06 09:40 42.69860 23.38407 2214 ft 190 kts 277°
2026-05-06 09:40 42.70201 23.34892 2747 ft 190 kts 279°
2026-05-06 09:41 42.70644 23.33217 2939 ft 191 kts 309°
2026-05-06 09:41 42.71739 23.32259 3018 ft 191 kts 347°
2026-05-06 09:41 42.73057 23.32087 3017 ft 190 kts 358°
2026-05-06 09:41 42.74363 23.32285 2998 ft 190 kts 23°
2026-05-06 09:42 42.75321 23.33488 3010 ft 192 kts 63°
2026-05-06 09:42 42.75597 23.35245 3018 ft 192 kts 86°
2026-05-06 09:42 42.75618 23.37060 3012 ft 192 kts 92°
2026-05-06 09:42 42.75568 23.38873 3012 ft 192 kts 93°
2026-05-06 09:43 42.75477 23.40682 3010 ft 192 kts 95°
2026-05-06 09:43 42.75368 23.42488 3009 ft 192 kts 95°
2026-05-06 09:43 42.75258 23.44293 2997 ft 192 kts 95°
2026-05-06 09:43 42.75147 23.46101 2996 ft 192 kts 95°
2026-05-06 09:44 42.75035 23.47906 2995 ft 191 kts 95°
2026-05-06 09:44 42.74923 23.49709 2996 ft 192 kts 95°
2026-05-06 09:44 42.74811 23.51513 2995 ft 192 kts 95°
2026-05-06 09:44 42.74702 23.53321 2992 ft 192 kts 95°
2026-05-06 09:45 42.74542 23.55118 2985 ft 192 kts 107°
2026-05-06 09:45 42.73804 23.56462 2977 ft 169 kts 150°
2026-05-06 09:45 42.72729 23.56782 3020 ft 155 kts 180°
2026-05-06 09:45 42.72024 23.56754 3004 ft 152 kts 184°
2026-05-06 09:46 42.70981 23.56649 2998 ft 149 kts 187°
2026-05-06 09:46 42.69792 23.55795 2938 ft 150 kts 234°
2026-05-06 09:46 42.69454 23.54976 2994 ft 150 kts 246°
2026-05-06 09:46 42.69095 23.53633 2932 ft 151 kts 257°
2026-05-06 09:47 42.68978 23.52225 2844 ft 149 kts 271°
2026-05-06 09:47 42.69063 23.50823 2780 ft 149 kts 278°
2026-05-06 09:47 42.69189 23.49425 2668 ft 148 kts 277°
2026-05-06 09:47 42.69279 23.48031 2470 ft 148 kts 275°
2026-05-06 09:48 42.69354 23.46640 2254 ft 147 kts 275°
2026-05-06 09:48 42.69438 23.45255 1999 ft 146 kts 275°
2026-05-06 09:48 42.69519 23.43882 1825 ft 146 kts 274°
2026-05-06 09:48 42.69590 23.42561 1752 ft 129 kts 276°
2026-05-06 09:49 42.69662 23.41450 1750 ft 112 kts 275°
2026-05-06 09:49 42.69740 23.40060 1804 ft 181 kts 274°
2026-05-06 09:49 42.69831 23.38244 2319 ft 194 kts 274°
2026-05-06 09:49 42.69890 23.36410 2643 ft 193 kts 272°
2026-05-06 09:50 42.69920 23.34593 2898 ft 193 kts 272°
2026-05-06 09:50 42.69939 23.32765 2992 ft 193 kts 271°
2026-05-06 09:50 42.70169 23.30988 2998 ft 191 kts 298°
2026-05-06 09:50 42.71113 23.29780 3007 ft 190 kts 338°
2026-05-06 09:51 42.72411 23.29516 3018 ft 190 kts 360°
2026-05-06 09:51 42.73733 23.29561 3013 ft 191 kts
2026-05-06 09:51 42.75059 23.29650 3011 ft 191 kts
2026-05-06 09:51 42.76285 23.30256 3004 ft 192 kts 40°
2026-05-06 09:52 42.76958 23.31781 3010 ft 192 kts 79°
2026-05-06 09:52 42.77085 23.33587 3016 ft 192 kts 88°
2026-05-06 09:52 42.77111 23.35397 3012 ft 191 kts 90°
2026-05-06 09:52 42.77055 23.37201 3008 ft 191 kts 96°
2026-05-06 09:53 42.76881 23.38991 3006 ft 191 kts 98°
2026-05-06 09:53 42.76687 23.40780 3004 ft 191 kts 99°
2026-05-06 09:53 42.76508 23.42567 3003 ft 191 kts 97°
2026-05-06 09:53 42.76349 23.44362 2987 ft 191 kts 97°
2026-05-06 09:54 42.76194 23.46155 2982 ft 191 kts 97°
2026-05-06 09:54 42.76045 23.47946 2980 ft 191 kts 97°
2026-05-06 09:54 42.75900 23.49737 2979 ft 187 kts 97°
2026-05-06 09:54 42.75761 23.51426 2993 ft 175 kts 97°
2026-05-06 09:55 42.75627 23.53054 2999 ft 172 kts 97°
2026-05-06 09:55 42.75496 23.54663 2992 ft 171 kts 97°
2026-05-06 09:55 42.75119 23.56147 2971 ft 160 kts 131°
2026-05-06 09:55 42.74195 23.56792 2990 ft 148 kts 172°
2026-05-06 09:56 42.73178 23.56840 2996 ft 145 kts 182°
2026-05-06 09:56 42.72175 23.56703 2997 ft 145 kts 188°
2026-05-06 09:56 42.71184 23.56488 2997 ft 144 kts 189°
2026-05-06 09:56 42.70218 23.56129 2958 ft 144 kts 205°
2026-05-06 09:57 42.69379 23.55356 2892 ft 148 kts 226°
2026-05-06 09:57 42.68845 23.54198 2841 ft 147 kts 250°
2026-05-06 09:57 42.68836 23.52844 2737 ft 144 kts 284°
2026-05-06 09:57 42.69063 23.51495 2731 ft 145 kts 282°
2026-05-06 09:58 42.69144 23.50147 2635 ft 146 kts 273°
2026-05-06 09:58 42.69220 23.48764 2474 ft 144 kts 277°
2026-05-06 09:58 42.69315 23.47432 2314 ft 143 kts 274°
2026-05-06 09:58 42.69386 23.46082 2142 ft 143 kts 276°
2026-05-06 09:59 42.69470 23.44737 1925 ft 142 kts 274°
2026-05-06 09:59 42.69546 23.43401 1753 ft 141 kts 274°
2026-05-06 09:59 42.69618 23.42204 1749 ft 116 kts 274°
2026-05-06 09:59 42.69692 23.40950 1749 ft 168 kts 274°
2026-05-06 10:00 42.69789 23.39205 2119 ft 190 kts 275°
2026-05-06 10:00 42.69926 23.37414 2423 ft 190 kts 277°
2026-05-06 10:00 42.70074 23.35623 2671 ft 191 kts 277°
2026-05-06 10:00 42.70210 23.33824 2908 ft 193 kts 275°
2026-05-06 10:01 42.70585 23.32098 2996 ft 192 kts 306°
2026-05-06 10:01 42.71634 23.31050 3007 ft 190 kts 345°
2026-05-06 10:01 42.72948 23.30864 3016 ft 191 kts
2026-05-06 10:01 42.74273 23.30920 3013 ft 191 kts
2026-05-06 10:02 42.75591 23.31103 3006 ft 191 kts 15°
2026-05-06 10:02 42.76744 23.31966 3004 ft 192 kts 49°
2026-05-06 10:02 42.77262 23.33604 3013 ft 191 kts 83°
2026-05-06 10:02 42.77313 23.35414 3013 ft 192 kts 91°
2026-05-06 10:03 42.77202 23.37223 3013 ft 192 kts 97°
2026-05-06 10:03 42.77036 23.39024 3012 ft 192 kts 98°
2026-05-06 10:03 42.76862 23.40820 3011 ft 191 kts 98°
2026-05-06 10:03 42.76685 23.42614 3010 ft 191 kts 98°
2026-05-06 10:04 42.76510 23.44391 2989 ft 189 kts 98°
2026-05-06 10:04 42.76342 23.46161 2981 ft 189 kts 98°
2026-05-06 10:04 42.76186 23.47939 2977 ft 189 kts 97°
2026-05-06 10:04 42.76037 23.49722 2975 ft 190 kts 97°
2026-05-06 10:05 42.75889 23.51509 2970 ft 190 kts 97°
2026-05-06 10:05 42.75493 23.53190 2963 ft 182 kts 128°
2026-05-06 10:05 42.74532 23.54014 2984 ft 158 kts 170°
2026-05-06 10:05 42.73465 23.54030 2993 ft 151 kts 186°
2026-05-06 10:06 42.72433 23.53849 2995 ft 148 kts 188°
2026-05-06 10:06 42.71428 23.53567 2996 ft 147 kts 202°
2026-05-06 10:06 42.70570 23.52827 2999 ft 148 kts 225°
2026-05-06 10:06 42.69901 23.51724 2897 ft 152 kts 239°
2026-05-06 10:07 42.69481 23.50426 2733 ft 150 kts 255°
2026-05-06 10:07 42.69301 23.49044 2582 ft 148 kts 265°
2026-05-06 10:07 42.69286 23.47652 2402 ft 147 kts 275°
2026-05-06 10:07 42.69391 23.46277 2220 ft 146 kts 275°
2026-05-06 10:08 42.69467 23.44901 1983 ft 146 kts 274°
2026-05-06 10:08 42.69541 23.43534 1771 ft 144 kts 274°
2026-05-06 10:08 42.69619 23.42207 1749 ft 120 kts 274°
2026-05-06 10:08 42.69665 23.41413 1747 ft 63 kts 276°
2026-05-06 10:09 42.69669 23.40904 1745 ft 42 kts 252°
2026-05-06 10:09 42.69598 23.40693 1740 ft 0 kts 247°
2026-05-06 10:10 42.69556 23.40692 1744 ft 18 kts 166°
2026-05-06 10:10 42.69507 23.40894 1741 ft 27 kts 96°
2026-05-06 10:11 42.69491 23.41160 1741 ft 24 kts 103°
2026-05-06 10:11 42.69367 23.41192 1746 ft 19 kts 193°
2026-05-06 10:11 42.69227 23.41152 1748 ft 21 kts 193°
2026-05-06 10:11 42.69117 23.41061 1743 ft 18 kts 250°
2026-05-06 10:12 42.69063 23.40973 1746 ft 5 kts 149°
2026-05-06 10:12 42.69034 23.40994 1748 ft 4 kts 163°